North Greece, NY

10:11 AM EDT on July 21, 2017 (GMT -0400)
Raspberry Patch and White Rabbit | | Change Station

Elev 335 ft 43.25 °N, 77.73 °W | Updated 3 seconds ago

Partly Cloudy
Partly Cloudy
79.6 °F
Feels Like 82 °F
N
0.0
Wind Variable Wind from NW
Gusts 5.0 mph

Today
High -- | Low -- °F
--% Chance of Precip.
Yesterday
High -- | Low -- °F
Precip. -- in
Pressure 29.95 in
Visibility 10.0 miles
Clouds Few 4500 ft
Few 14000 ft
Scattered Clouds 26000 ft
Heat Index 82 °F
Dew Point 66 °F
Humidity 63%
Rainfall 0.00 in
Snow Depth Not available.
5:50 AM 8:43 PM
Waning Crescent, 5% visible
METAR KROC 211354Z COR 27005KT 10SM FEW045 FEW140 SCT260 26/19 A2995 RMK AO2 SLP140 T02610194
Pressure 29.95 in
Visibility 10.0 miles
Clouds Few 4500 ft
Few 14000 ft
Scattered Clouds 26000 ft
Heat Index 82 °F
Dew Point 66 °F
Humidity 63%
Rainfall 0.00 in
Snow Depth Not available.
5:50 AM 8:43 PM
Waning Crescent, 5% visible
METAR KROC 211354Z COR 27005KT 10SM FEW045 FEW140 SCT260 26/19 A2995 RMK AO2 SLP140 T02610194

Get Severe Weather Alerts

Thanks for signing up!

Be on the lookout for a verification email in your inbox.

You'll start receiving the daily forecast at 6 AM.

×

10-Day Weather Forecast

Almanac

Astronomy

Jul. 21, 2017 Rise Set
Actual Time
Civil Twilight
Nautical Twilight
Astronomical Twilight
Moon
Length of Visible Light
Length of Day
Tomorrow will be .
, % of the Moon is Illuminated

Today's Extremes

State Highs State Lows

Community

WunderPhotos

Category 6

Welcome to Category 6. This is the collective home for Weather Underground's featured writeups by Dr. Jeff Masters (right), Bob Henson (left), Chris Burt, and other regular contributors.

Nearby

Air Quality

  Air Quality AQ Index Pollutant
Not available.

Snow Depth

Station Depth Elevation

Earthquake Activity

City Distance Mag. Time & Date
Minimum magnitude displayed is 2.5.

Coastal Water Temperatures

Place Temperature

Stations

Nearby Weather Stations

Station Location Temp. Windchill Dew Point Humidity Wind Precip. Elev Updated Type
                   

Watches & Warnings

There are currently no watches in effect.